Time;durP1;ratioP1;P1;durP2;ratioP2;P2;SDS_P1;SDS_P2;PMS_P1;PMS_P2;Temp;Humidity;BMP_temperature;BMP_pressure;BME280_temperature;BME280_humidity;BME280_pressure;Samples;Min_cycle;Max_cycle;Signal;HPM_P1;HPM_P2
2024/01/14 00:00:17;;;;;;;88.28;29.88;;;-3.00;99.90;;;;;;5059211;28;20053;-94
2024/01/14 00:02:46;;;;;;;77.07;23.58;;;-3.00;99.90;;;;;;5060504;28;20469;-94
2024/01/14 00:05:14;;;;;;;92.75;29.35;;;-3.10;99.90;;;;;;5061318;28;20487;-93
2024/01/14 00:07:48;;;;;;;106.18;28.55;;;-3.00;99.90;;;;;;5059639;28;20025;-95
2024/01/14 00:10:19;;;;;;;86.47;29.30;;;-3.00;99.90;;;;;;5059204;28;20029;-92
2024/01/14 00:12:45;;;;;;;81.82;27.10;;;-3.10;99.90;;;;;;5060508;28;20791;-93
2024/01/14 00:15:12;;;;;;;81.97;27.80;;;-3.10;99.90;;;;;;5056229;28;20029;-93
2024/01/14 00:17:38;;;;;;;84.65;28.50;;;-3.10;99.90;;;;;;5061811;28;20033;-94
2024/01/14 00:20:08;;;;;;;79.00;27.00;;;-3.10;99.90;;;;;;5061182;28;20071;-93
2024/01/14 00:22:34;;;;;;;82.45;25.13;;;-3.20;99.90;;;;;;5060125;28;20014;-94
2024/01/14 00:25:03;;;;;;;73.63;25.63;;;-3.10;99.90;;;;;;5060634;28;20077;-93
2024/01/14 00:27:32;;;;;;;72.97;21.02;;;-3.10;99.90;;;;;;5060173;28;20406;-93
2024/01/14 00:30:01;;;;;;;71.68;25.33;;;-3.00;99.90;;;;;;5060504;28;20037;-93
2024/01/14 00:32:35;;;;;;;73.95;28.75;;;-3.10;99.90;;;;;;5061051;28;20041;-93
2024/01/14 00:35:01;;;;;;;78.93;26.52;;;-3.00;99.90;;;;;;5061927;28;20052;-94
2024/01/14 00:37:27;;;;;;;64.30;22.60;;;-3.00;99.90;;;;;;5073814;28;20076;-94
2024/01/14 00:39:58;;;;;;;79.35;26.60;;;-3.10;99.90;;;;;;5076722;28;20009;-96
2024/01/14 00:42:24;;;;;;;77.15;27.70;;;-3.20;99.90;;;;;;5076524;28;20017;-96
2024/01/14 00:47:22;;;;;;;69.85;26.52;;;-3.10;99.90;;;;;;5098134;28;20040;-92
2024/01/14 00:49:48;;;;;;;69.85;20.85;;;-3.10;99.90;;;;;;5099611;28;20355;-92
2024/01/14 00:52:14;;;;;;;78.13;27.40;;;-3.10;99.90;;;;;;5100437;28;20024;-92
2024/01/14 00:54:40;;;;;;;81.30;26.35;;;-3.10;99.90;;;;;;5100847;28;20051;-93
2024/01/14 00:57:07;;;;;;;77.78;25.80;;;-3.20;99.90;;;;;;5082412;28;20036;-91
2024/01/14 00:59:33;;;;;;;78.95;25.80;;;-3.10;99.90;;;;;;5100360;28;20028;-91
2024/01/14 01:01:59;;;;;;;66.07;23.80;;;-3.20;99.90;;;;;;5082308;28;20050;-91
2024/01/14 01:04:25;;;;;;;68.25;25.63;;;-3.10;99.90;;;;;;5100387;28;20020;-92
2024/01/14 01:06:50;;;;;;;77.18;29.30;;;-3.20;99.90;;;;;;5084280;28;20020;-92
2024/01/14 01:09:16;;;;;;;75.40;27.38;;;-3.20;99.90;;;;;;5086125;28;20035;-92
2024/01/14 01:11:42;;;;;;;76.53;27.05;;;-3.20;99.90;;;;;;5103452;28;20478;-91
2024/01/14 01:14:07;;;;;;;70.40;27.05;;;-3.20;99.90;;;;;;5108225;28;20088;-91
2024/01/14 01:16:34;;;;;;;66.25;27.85;;;-3.20;99.90;;;;;;5089320;28;20067;-92
2024/01/14 01:19:00;;;;;;;75.75;27.67;;;-3.20;99.90;;;;;;5085405;28;20021;-92
2024/01/14 01:21:26;;;;;;;67.13;20.85;;;-3.20;99.90;;;;;;5103833;28;20020;-92
2024/01/14 01:23:51;;;;;;;57.55;23.55;;;-3.20;99.90;;;;;;5086234;28;20119;-92
2024/01/14 01:26:17;;;;;;;59.13;24.13;;;-3.10;99.90;;;;;;5087834;28;20154;-93
2024/01/14 01:28:43;;;;;;;78.25;27.02;;;-3.20;99.90;;;;;;5084268;28;20115;-91
2024/01/14 01:31:09;;;;;;;57.38;20.48;;;-3.20;99.90;;;;;;5084853;28;20338;-92
2024/01/14 01:33:34;;;;;;;67.32;25.48;;;-3.10;99.90;;;;;;5104151;28;20028;-93
2024/01/14 01:36:00;;;;;;;81.30;28.27;;;-3.10;99.90;;;;;;5104490;28;20031;-93
2024/01/14 01:38:26;;;;;;;73.10;25.58;;;-3.20;99.90;;;;;;5104050;28;20057;-90
2024/01/14 01:40:52;;;;;;;70.43;25.95;;;-3.20;99.90;;;;;;5103979;28;20072;-92
2024/01/14 01:43:17;;;;;;;64.10;24.92;;;-3.30;99.90;;;;;;5086580;28;20115;-90
2024/01/14 01:45:43;;;;;;;82.97;28.63;;;-3.30;99.90;;;;;;5105045;28;20437;-93
2024/01/14 01:48:09;;;;;;;82.85;30.75;;;-3.30;99.90;;;;;;5115012;28;20039;-92
2024/01/14 01:53:11;;;;;;;72.82;26.60;;;-3.30;99.90;;;;;;5056524;28;20049;-93
2024/01/14 01:55:37;;;;;;;75.85;25.80;;;-3.30;99.90;;;;;;5043297;28;20112;-93
2024/01/14 01:58:11;;;;;;;80.90;26.73;;;-3.20;99.90;;;;;;5052884;28;20024;-93
2024/01/14 02:00:43;;;;;;;80.07;27.88;;;-3.20;99.90;;;;;;5054322;28;20031;-93
2024/01/14 02:03:09;;;;;;;72.90;28.63;;;-3.20;99.90;;;;;;5049236;28;20029;-92
2024/01/14 02:05:41;;;;;;;60.17;20.63;;;-3.20;99.90;;;;;;5034730;28;22355;-94
2024/01/14 02:08:07;;;;;;;73.10;23.45;;;-3.20;99.90;;;;;;5037097;28;20402;-93
2024/01/14 02:10:44;;;;;;;72.55;24.98;;;-3.20;99.90;;;;;;5053347;28;20092;-94
2024/01/14 02:13:10;;;;;;;71.95;25.23;;;-3.20;99.90;;;;;;5058158;28;20024;-93
2024/01/14 02:18:23;;;;;;;69.25;25.52;;;-3.30;99.90;;;;;;5152144;22;20163;-92
2024/01/14 02:21:03;;;;;;;;;;;;;;;;;;;;;
2024/01/14 02:23:39;;;;;;;87.53;26.00;;;-3.30;99.90;;;;;;5102153;28;20553;-94
2024/01/14 02:26:05;;;;;;;81.72;27.20;;;-3.20;99.90;;;;;;5084549;28;20541;-95
2024/01/14 02:28:35;;;;;;;80.70;26.88;;;-3.20;99.90;;;;;;5100826;28;20078;-93
2024/01/14 02:31:05;;;;;;;62.33;25.67;;;-3.20;99.90;;;;;;5100382;28;20100;-93
2024/01/14 02:33:41;;;;;;;77.78;28.50;;;-3.30;99.90;;;;;;5102390;28;20028;-94
2024/01/14 02:36:16;;;;;;;73.53;24.60;;;-3.20;99.90;;;;;;5102577;28;20102;-93
2024/01/14 02:38:51;;;;;;;76.85;25.40;;;-3.20;99.90;;;;;;5103943;28;20031;-92
2024/01/14 02:41:20;;;;;;;69.28;27.52;;;-3.20;99.60;;;;;;5100854;28;20031;-93
2024/01/14 02:43:47;;;;;;;85.28;27.67;;;-3.30;99.90;;;;;;5100532;28;20035;-93
2024/01/14 02:46:20;;;;;;;69.65;25.77;;;-3.30;99.90;;;;;;5100714;28;20031;-93
2024/01/14 02:49:04;;;;;;;83.15;26.23;;;-3.30;99.90;;;;;;5091050;28;20012;-92
2024/01/14 02:51:30;;;;;;;75.38;24.13;;;-3.30;99.90;;;;;;5096622;28;20059;-93
2024/01/14 02:54:03;;;;;;;75.28;26.88;;;-3.20;99.90;;;;;;5092148;28;20028;-95
2024/01/14 02:56:30;;;;;;;69.40;24.27;;;-3.30;99.90;;;;;;5092070;28;20032;-94
2024/01/14 02:58:59;;;;;;;78.28;26.02;;;-3.30;99.90;;;;;;5096444;28;20048;-94
2024/01/14 03:01:25;;;;;;;76.28;25.48;;;-3.20;99.90;;;;;;5094125;28;20110;-93
2024/01/14 03:04:00;;;;;;;60.95;24.10;;;-3.30;99.90;;;;;;5099285;28;20062;-93
2024/01/14 03:06:26;;;;;;;63.03;23.75;;;-3.30;99.80;;;;;;5087645;28;20024;-94
2024/01/14 03:08:56;;;;;;;77.25;27.75;;;-3.40;99.90;;;;;;5098850;28;20024;-94
2024/01/14 03:11:22;;;;;;;80.00;25.90;;;-3.30;99.90;;;;;;5080834;28;20097;-93
2024/01/14 03:13:55;;;;;;;71.28;23.13;;;-3.40;99.90;;;;;;5082898;28;20036;-93
2024/01/14 03:16:24;;;;;;;70.35;24.52;;;-3.30;99.90;;;;;;5099468;28;20054;-93
2024/01/14 03:18:50;;;;;;;85.60;25.65;;;-3.30;99.90;;;;;;5099413;28;20021;-95
2024/01/14 03:21:20;;;;;;;65.55;25.80;;;-3.30;99.90;;;;;;5095138;28;20025;-93
2024/01/14 03:23:48;;;;;;;70.97;26.15;;;-3.30;99.90;;;;;;5088767;28;20020;-94
2024/01/14 03:26:15;;;;;;;86.28;28.15;;;-3.30;99.90;;;;;;5078908;28;20052;-93
2024/01/14 03:28:56;;;;;;;69.45;23.30;;;-3.40;99.90;;;;;;5087465;28;20016;-94
2024/01/14 03:31:23;;;;;;;64.47;22.67;;;-3.30;99.90;;;;;;5092657;28;20032;-94
2024/01/14 03:33:51;;;;;;;71.63;25.17;;;-3.40;99.90;;;;;;5088056;28;20119;-93
2024/01/14 03:36:18;;;;;;;61.53;25.45;;;-3.40;99.90;;;;;;5079262;28;20028;-93
2024/01/14 03:38:51;;;;;;;76.25;28.38;;;-3.40;99.90;;;;;;5087530;28;20051;-92
2024/01/14 03:41:20;;;;;;;80.15;26.23;;;-3.40;99.90;;;;;;5086608;28;20057;-93
2024/01/14 03:43:57;;;;;;;70.50;24.90;;;-3.40;99.90;;;;;;5091437;28;20027;-94
2024/01/14 03:46:26;;;;;;;83.30;25.13;;;-3.30;99.90;;;;;;5100220;28;20038;-94
2024/01/14 03:48:55;;;;;;;73.35;28.98;;;-3.40;99.90;;;;;;5100782;28;20081;-93
2024/01/14 03:51:21;;;;;;;80.05;24.67;;;-3.50;99.90;;;;;;5093691;28;20546;-92
2024/01/14 03:54:01;;;;;;;78.78;26.58;;;-3.50;99.90;;;;;;5079982;28;20075;-93
2024/01/14 03:56:31;;;;;;;72.75;24.92;;;-3.50;99.90;;;;;;5087690;28;20056;-93
2024/01/14 03:58:57;;;;;;;72.10;26.00;;;-3.50;99.90;;;;;;5089905;28;20023;-94
2024/01/14 04:01:23;;;;;;;81.05;28.33;;;-3.50;99.90;;;;;;5100380;28;20016;-94
2024/01/14 04:03:48;;;;;;;74.65;23.58;;;-3.40;99.90;;;;;;5098783;28;20027;-93
2024/01/14 04:06:28;;;;;;;;;;;;;;;;;;;;;
2024/01/14 04:08:57;;;;;;;71.07;24.83;;;-3.30;99.90;;;;;;5092397;28;20118;-92
2024/01/14 04:11:26;;;;;;;65.72;26.33;;;-3.30;99.90;;;;;;5099862;28;20101;-93
2024/01/14 04:13:52;;;;;;;80.53;23.58;;;-3.40;99.90;;;;;;5102331;28;20077;-93
2024/01/14 04:16:18;;;;;;;72.70;27.75;;;-3.40;99.90;;;;;;5096837;28;20032;-93
2024/01/14 04:18:48;;;;;;;81.28;26.52;;;-3.30;99.90;;;;;;5088880;28;20150;-94
2024/01/14 04:21:43;;;;;;;82.72;25.95;;;-3.30;99.90;;;;;;5078039;28;20031;-92
2024/01/14 04:24:12;;;;;;;78.15;25.27;;;-3.30;99.90;;;;;;5087507;28;20024;-93
2024/01/14 04:26:58;;;;;;;75.10;25.27;;;-3.30;99.90;;;;;;5093042;28;20028;-93
2024/01/14 04:29:30;;;;;;;96.03;27.83;;;-3.30;99.90;;;;;;5087295;28;20024;-93
2024/01/14 04:32:01;;;;;;;71.78;27.33;;;-3.30;99.90;;;;;;5083325;28;20047;-94
2024/01/14 04:34:31;;;;;;;69.53;23.20;;;-3.30;99.90;;;;;;5100479;28;20024;-94
2024/01/14 04:37:05;;;;;;;79.05;26.92;;;-3.40;99.90;;;;;;5087450;28;20100;-94
2024/01/14 04:39:40;;;;;;;78.70;27.35;;;-3.30;99.90;;;;;;5081962;28;20023;-93
2024/01/14 04:42:09;;;;;;;79.05;26.35;;;-3.40;99.90;;;;;;5094247;28;20025;-92
2024/01/14 04:44:47;;;;;;;84.65;26.55;;;-3.40;99.90;;;;;;5100691;28;20031;-95
2024/01/14 04:47:13;;;;;;;62.58;22.35;;;-3.40;99.90;;;;;;5098418;28;20043;-93
2024/01/14 04:49:53;;;;;;;74.63;25.67;;;-3.30;99.90;;;;;;5095589;28;20020;-93
2024/01/14 04:52:22;;;;;;;75.38;24.30;;;-3.40;99.90;;;;;;5090824;28;20138;-93
2024/01/14 04:55:01;;;;;;;75.88;28.30;;;-3.30;99.90;;;;;;5092347;28;20025;-93
2024/01/14 04:57:39;;;;;;;83.03;25.08;;;-3.30;99.90;;;;;;5092064;28;20030;-93
2024/01/14 05:00:25;;;;;;;89.10;25.58;;;-3.30;99.90;;;;;;5103379;28;20023;-92
2024/01/14 05:02:56;;;;;;;82.25;25.67;;;-3.30;99.90;;;;;;5080916;28;20036;-94
2024/01/14 05:05:24;;;;;;;88.10;31.98;;;-3.30;99.90;;;;;;5098701;28;20040;-92
2024/01/14 05:07:52;;;;;;;95.78;32.60;;;-3.40;99.90;;;;;;5101672;28;20089;-93
2024/01/14 05:10:30;;;;;;;84.43;29.48;;;-3.40;99.90;;;;;;5100254;28;20054;-94
2024/01/14 05:13:27;;;;;;;83.20;26.05;;;-3.40;99.90;;;;;;5091565;28;20032;-93
2024/01/14 05:15:54;;;;;;;78.72;26.95;;;-3.40;99.90;;;;;;5161971;22;20067;-92
2024/01/14 05:18:20;;;;;;;78.57;22.80;;;-3.30;99.90;;;;;;5104143;28;20024;-93
2024/01/14 05:20:46;;;;;;;72.80;23.55;;;-3.30;99.90;;;;;;5079979;28;20025;-93
2024/01/14 05:23:13;;;;;;;75.95;24.65;;;-3.30;99.90;;;;;;5063976;28;20120;-92
2024/01/14 05:25:39;;;;;;;77.60;26.77;;;-3.40;99.90;;;;;;5064578;28;20027;-92
2024/01/14 05:28:04;;;;;;;71.18;26.10;;;-3.30;99.90;;;;;;5062448;28;20021;-93
2024/01/14 05:30:31;;;;;;;77.03;25.27;;;-3.30;99.90;;;;;;5062627;28;20059;-93
2024/01/14 05:32:56;;;;;;;84.55;28.17;;;-3.30;99.90;;;;;;5062808;28;20036;-92
2024/01/14 05:35:25;;;;;;;80.07;28.45;;;-3.30;99.90;;;;;;5076559;28;20024;-92
2024/01/14 05:37:51;;;;;;;92.63;28.10;;;-3.30;99.90;;;;;;5104742;28;20428;-92
2024/01/14 05:40:17;;;;;;;82.15;26.70;;;-3.30;99.90;;;;;;5103579;28;20025;-91
2024/01/14 05:42:43;;;;;;;86.68;30.13;;;-3.40;99.90;;;;;;5103142;28;20068;-94
2024/01/14 05:45:10;;;;;;;71.60;25.05;;;-3.30;99.90;;;;;;5085500;28;20020;-93
2024/01/14 05:47:36;;;;;;;86.72;30.27;;;-3.30;99.90;;;;;;5064118;28;20033;-93
2024/01/14 05:50:02;;;;;;;86.55;28.75;;;-3.40;99.90;;;;;;5062179;28;20095;-92
2024/01/14 05:52:28;;;;;;;90.93;28.20;;;-3.40;99.90;;;;;;5063746;28;20032;-93
2024/01/14 05:54:54;;;;;;;71.07;26.00;;;-3.40;99.90;;;;;;5082890;28;20074;-93
2024/01/14 05:57:20;;;;;;;80.72;28.15;;;-3.50;99.90;;;;;;5082057;28;20031;-92
2024/01/14 05:59:45;;;;;;;78.43;28.63;;;-3.50;99.90;;;;;;5083725;28;20032;-92
2024/01/14 06:02:11;;;;;;;83.90;29.42;;;-3.50;99.90;;;;;;5082794;28;20051;-92
2024/01/14 06:04:38;;;;;;;95.22;28.90;;;-3.50;99.90;;;;;;5083600;28;20039;-92
2024/01/14 06:07:04;;;;;;;76.68;28.45;;;-3.50;99.90;;;;;;5082395;28;20035;-92
2024/01/14 06:09:30;;;;;;;78.45;27.88;;;-3.40;99.90;;;;;;5081773;28;20029;-91
2024/01/14 06:11:56;;;;;;;74.13;29.15;;;-3.50;99.90;;;;;;5081701;28;20024;-92
2024/01/14 06:14:21;;;;;;;71.07;27.02;;;-3.50;99.90;;;;;;5094532;28;20028;-92
2024/01/14 06:16:47;;;;;;;70.13;25.90;;;-3.50;99.90;;;;;;5101612;28;20039;-95
2024/01/14 06:19:13;;;;;;;79.90;29.63;;;-3.50;99.90;;;;;;5103313;28;20041;-92
2024/01/14 06:21:43;;;;;;;84.00;29.73;;;-3.50;99.90;;;;;;5102536;28;20069;-92
2024/01/14 06:24:09;;;;;;;85.40;27.33;;;-3.50;99.90;;;;;;5103837;28;20024;-92
2024/01/14 06:26:35;;;;;;;77.78;30.50;;;-3.50;99.90;;;;;;5103067;28;20024;-93
2024/01/14 06:29:02;;;;;;;83.43;25.83;;;-3.50;99.90;;;;;;5102819;28;20027;-92
2024/01/14 06:31:27;;;;;;;83.55;31.05;;;-3.50;99.90;;;;;;5103131;28;20028;-93
2024/01/14 06:33:53;;;;;;;72.35;27.20;;;-3.50;99.90;;;;;;5082236;28;20032;-92
2024/01/14 06:36:19;;;;;;;93.57;29.20;;;-3.50;99.90;;;;;;5085517;28;20043;-94
2024/01/14 06:38:45;;;;;;;85.97;28.38;;;-3.50;99.90;;;;;;5090580;22;20816;-92
2024/01/14 06:41:24;;;;;;;99.65;27.73;;;-3.50;99.90;;;;;;5070211;28;20028;-95
2024/01/14 06:43:51;;;;;;;85.85;27.70;;;-3.50;99.90;;;;;;5095184;28;20506;-94
2024/01/14 06:46:17;;;;;;;91.28;29.17;;;-3.50;99.90;;;;;;5063802;28;20113;-92
2024/01/14 06:48:46;;;;;;;69.40;26.55;;;-3.50;99.90;;;;;;5063308;28;20017;-92
2024/01/14 06:51:12;;;;;;;71.40;26.92;;;-3.60;99.90;;;;;;5063751;28;20080;-93
2024/01/14 06:53:38;;;;;;;90.32;24.58;;;-3.50;99.90;;;;;;5090780;28;20545;-93
2024/01/14 06:56:04;;;;;;;88.82;27.77;;;-3.60;99.90;;;;;;5098430;28;20025;-93
2024/01/14 06:58:33;;;;;;;71.88;26.95;;;-3.60;99.90;;;;;;5082807;28;20036;-93
2024/01/14 07:01:07;;;;;;;83.03;27.77;;;-3.60;99.90;;;;;;5087978;28;20170;-93
2024/01/14 07:03:33;;;;;;;93.53;26.33;;;-3.50;99.90;;;;;;5076131;28;20035;-93
2024/01/14 07:06:00;;;;;;;76.60;26.40;;;-3.50;99.90;;;;;;5079537;28;20043;-93
2024/01/14 07:08:25;;;;;;;70.40;26.40;;;-3.60;99.90;;;;;;5067748;28;20051;-92
2024/01/14 07:10:53;;;;;;;78.10;30.23;;;-3.60;99.90;;;;;;5078917;28;20029;-92
2024/01/14 07:13:22;;;;;;;77.00;25.48;;;-3.50;99.90;;;;;;5075706;28;20074;-91
2024/01/14 07:15:51;;;;;;;84.60;29.08;;;-3.50;99.90;;;;;;5067144;28;20021;-93
2024/01/14 07:18:17;;;;;;;75.32;26.92;;;-3.50;99.90;;;;;;5063856;28;20143;-92
2024/01/14 07:20:45;;;;;;;80.50;28.15;;;-3.50;99.90;;;;;;5090107;28;20040;-92
2024/01/14 07:23:11;;;;;;;76.88;28.60;;;-3.60;99.90;;;;;;5060640;28;20425;-93
2024/01/14 07:25:42;;;;;;;66.07;25.25;;;-3.50;99.90;;;;;;5062964;28;20226;-93
2024/01/14 07:30:49;;;;;;;74.07;24.25;;;-3.60;99.90;;;;;;5138997;22;20060;-91
2024/01/14 07:33:16;;;;;;;;;;;-3.60;99.90;;;;;;5083160;28;20020;-91
2024/01/14 07:35:42;;;;;;;76.18;24.50;;;-3.60;99.70;;;;;;5069502;28;19958;-92
2024/01/14 07:38:08;;;;;;;71.72;24.67;;;-3.60;99.90;;;;;;5087017;28;20060;-90
2024/01/14 07:40:33;;;;;;;82.95;27.40;;;-3.60;99.90;;;;;;5079277;28;20051;-90
2024/01/14 07:42:59;;;;;;;87.85;27.67;;;-3.50;99.90;;;;;;5080930;28;20032;-92
2024/01/14 07:45:25;;;;;;;84.35;24.77;;;-3.50;99.60;;;;;;5060702;28;20029;-91
2024/01/14 07:47:51;;;;;;;74.32;24.13;;;-3.60;99.60;;;;;;5070132;28;20021;-91
2024/01/14 07:50:16;;;;;;;82.93;26.92;;;-3.50;99.20;;;;;;5080672;28;20021;-91
2024/01/14 07:52:42;;;;;;;78.07;26.17;;;-3.60;99.00;;;;;;5075670;28;20024;-91
2024/01/14 07:55:07;;;;;;;79.70;26.73;;;-3.60;99.00;;;;;;5060249;28;20029;-92
2024/01/14 07:57:34;;;;;;;77.85;27.05;;;-3.60;98.90;;;;;;5077709;28;20032;-91
2024/01/14 08:00:00;;;;;;;72.38;23.85;;;-3.60;98.80;;;;;;5066443;28;20088;-92
2024/01/14 08:02:25;;;;;;;77.18;26.48;;;-3.50;98.80;;;;;;5066037;28;20049;-92
2024/01/14 08:04:51;;;;;;;75.07;24.60;;;-3.50;98.70;;;;;;5079880;28;20021;-93
2024/01/14 08:07:17;;;;;;;81.15;24.15;;;-3.40;98.90;;;;;;5081060;28;20037;-92
2024/01/14 08:09:43;;;;;;;82.90;27.20;;;-3.50;98.70;;;;;;5079762;28;20028;-92
2024/01/14 08:12:08;;;;;;;73.65;28.05;;;-3.50;98.50;;;;;;5089585;28;20051;-92
2024/01/14 08:14:34;;;;;;;81.82;23.17;;;-3.50;97.90;;;;;;5062442;28;20459;-92
2024/01/14 08:17:00;;;;;;;82.45;27.48;;;-3.50;99.00;;;;;;5095509;28;20024;-90
2024/01/14 08:19:25;;;;;;;67.18;25.38;;;-3.50;98.40;;;;;;5092618;28;20020;-91
2024/01/14 08:21:51;;;;;;;69.60;24.58;;;-3.40;98.60;;;;;;5093939;28;20017;-93
2024/01/14 08:24:18;;;;;;;73.80;24.70;;;-3.40;98.30;;;;;;5089118;28;20016;-92
2024/01/14 08:26:45;;;;;;;68.75;26.13;;;-3.40;98.40;;;;;;5092660;28;20454;-90
2024/01/14 08:29:12;;;;;;;67.38;27.60;;;-3.40;98.00;;;;;;5087469;28;20024;-92
2024/01/14 08:31:38;;;;;;;68.93;22.60;;;-3.40;97.90;;;;;;5085530;28;20414;-93
2024/01/14 08:34:04;;;;;;;73.05;28.67;;;-3.40;98.50;;;;;;5064688;28;20131;-91
2024/01/14 08:36:31;;;;;;;86.28;29.25;;;-3.40;98.10;;;;;;5078968;28;20034;-92
2024/01/14 08:38:57;;;;;;;71.28;24.58;;;-3.40;98.10;;;;;;5089573;28;20027;-88
2024/01/14 08:41:26;;;;;;;80.45;26.40;;;-3.40;98.10;;;;;;5065814;28;20021;-91
2024/01/14 08:43:52;;;;;;;78.72;26.83;;;-3.40;97.90;;;;;;5071233;28;20394;-91
2024/01/14 08:46:17;;;;;;;74.03;26.60;;;-3.40;97.70;;;;;;5070744;28;20085;-92
2024/01/14 08:48:43;;;;;;;75.47;25.70;;;-3.40;98.30;;;;;;5090412;28;20048;-91
2024/01/14 08:51:13;;;;;;;78.57;26.85;;;-3.40;98.10;;;;;;5081951;28;20036;-93
2024/01/14 08:53:41;;;;;;;72.80;24.92;;;-3.30;98.40;;;;;;5084641;28;20035;-94
2024/01/14 08:56:09;;;;;;;72.57;26.30;;;-3.30;97.30;;;;;;5068269;28;20096;-93
2024/01/14 08:59:01;;;;;;;88.97;25.33;;;-3.30;97.10;;;;;;5068668;28;20027;-93
2024/01/14 09:01:27;;;;;;;63.42;26.27;;;-3.20;97.40;;;;;;5068042;28;20059;-93
2024/01/14 09:04:02;;;;;;;73.95;24.38;;;-3.20;96.90;;;;;;5086129;28;20025;-92
2024/01/14 09:06:28;;;;;;;79.07;26.20;;;-3.20;96.50;;;;;;5068455;28;20054;-92
2024/01/14 09:08:54;;;;;;;65.38;26.23;;;-3.20;96.80;;;;;;5071403;28;20024;-91
2024/01/14 09:11:26;;;;;;;62.92;23.80;;;-3.30;97.60;;;;;;5088037;28;20025;-93
2024/01/14 09:13:53;;;;;;;61.47;23.88;;;-3.30;97.20;;;;;;5070181;28;20025;-92
2024/01/14 09:16:30;;;;;;;72.20;24.20;;;-3.40;98.00;;;;;;5055974;28;20111;-93
2024/01/14 09:18:56;;;;;;;83.53;30.40;;;-3.30;98.10;;;;;;5090214;28;20031;-92
2024/01/14 09:21:31;;;;;;;61.35;23.13;;;-3.30;97.90;;;;;;5088353;28;20025;-94
2024/01/14 09:24:08;;;;;;;69.15;27.17;;;-3.30;97.80;;;;;;5087675;28;20044;-92
2024/01/14 09:26:38;;;;;;;60.38;22.55;;;-3.20;97.70;;;;;;5070328;28;20471;-93
2024/01/14 09:29:04;;;;;;;68.53;26.42;;;-3.30;97.30;;;;;;5073520;28;20052;-91
2024/01/14 09:31:29;;;;;;;66.15;28.38;;;-3.30;97.90;;;;;;5086356;28;20032;-92
2024/01/14 09:33:55;;;;;;;76.68;23.35;;;-3.30;97.10;;;;;;5100618;28;20409;-91
2024/01/14 09:36:21;;;;;;;73.38;24.20;;;-3.20;97.10;;;;;;5081367;28;20549;-92
2024/01/14 09:38:46;;;;;;;63.55;24.20;;;-3.20;96.80;;;;;;5091191;28;20020;-91
2024/01/14 09:41:42;;;;;;;80.18;23.92;;;-3.20;95.90;;;;;;5089127;28;20082;-93
2024/01/14 09:44:13;;;;;;;70.20;25.17;;;-3.20;95.60;;;;;;5065862;28;20017;-93
2024/01/14 09:46:39;;;;;;;77.75;28.92;;;-3.20;95.80;;;;;;5091324;28;20032;-94
2024/01/14 09:49:05;;;;;;;62.47;22.65;;;-3.00;95.40;;;;;;5092574;28;20051;-92
2024/01/14 09:51:32;;;;;;;80.43;24.67;;;-3.00;94.60;;;;;;5072761;28;20055;-93
2024/01/14 09:54:01;;;;;;;70.78;21.13;;;-3.00;93.80;;;;;;5090523;28;20463;-91
2024/01/14 09:56:31;;;;;;;77.47;24.00;;;-3.00;93.70;;;;;;5082317;28;20036;-92
2024/01/14 09:58:58;;;;;;;72.90;24.50;;;-3.00;94.30;;;;;;5079873;28;20051;-94
2024/01/14 10:01:30;;;;;;;77.07;28.77;;;-3.00;94.00;;;;;;5069231;28;20027;-92
2024/01/14 10:04:01;;;;;;;78.32;23.83;;;-3.00;94.00;;;;;;5085196;28;20433;-91
2024/01/14 10:06:28;;;;;;;79.00;24.92;;;-3.00;94.00;;;;;;5065187;28;20060;-91
2024/01/14 10:08:58;;;;;;;84.15;27.33;;;-3.10;93.60;;;;;;5061856;28;20032;-93
2024/01/14 10:11:24;;;;;;;68.47;25.35;;;-3.10;94.10;;;;;;5069701;28;20029;-91
2024/01/14 10:13:50;;;;;;;66.00;24.27;;;-3.10;94.20;;;;;;5080496;28;20024;-90
2024/01/14 10:16:16;;;;;;;77.22;24.92;;;-3.10;94.60;;;;;;5087399;28;20036;-92
2024/01/14 10:18:43;;;;;;;66.30;24.27;;;-3.10;94.80;;;;;;5092914;28;20024;-91
2024/01/14 10:21:11;;;;;;;73.30;27.45;;;-3.10;94.70;;;;;;5082171;28;20032;-91
2024/01/14 10:23:39;;;;;;;65.82;25.33;;;-3.10;94.00;;;;;;5090164;28;20026;-91
2024/01/14 10:26:05;;;;;;;69.93;24.92;;;-3.10;94.90;;;;;;5063581;28;20024;-91
2024/01/14 10:28:32;;;;;;;77.50;26.58;;;-3.00;93.80;;;;;;5082220;28;20024;-91
2024/01/14 10:31:00;;;;;;;77.68;25.38;;;-3.00;93.70;;;;;;5063747;28;20031;-91
2024/01/14 10:33:26;;;;;;;78.00;26.20;;;-3.00;93.60;;;;;;5081805;28;20028;-91
2024/01/14 10:35:52;;;;;;;68.78;23.88;;;-3.00;94.30;;;;;;5090643;28;20099;-92
2024/01/14 10:38:22;;;;;;;71.10;26.20;;;-3.00;94.00;;;;;;5081903;28;20176;-91
2024/01/14 10:40:48;;;;;;;86.63;26.75;;;-3.00;93.90;;;;;;5060958;28;20037;-92
2024/01/14 10:43:14;;;;;;;77.00;26.27;;;-3.10;94.80;;;;;;5067831;28;20032;-91
2024/01/14 10:45:40;;;;;;;71.15;24.05;;;-3.20;95.00;;;;;;5092607;28;20134;-92
2024/01/14 10:48:10;;;;;;;92.97;31.23;;;-3.10;95.30;;;;;;5069803;28;20032;-92
2024/01/14 10:50:37;;;;;;;81.57;28.23;;;-3.10;95.40;;;;;;5082431;28;20522;-93
2024/01/14 10:53:07;;;;;;;81.97;27.63;;;-3.00;95.80;;;;;;5063635;28;20052;-91
2024/01/14 10:55:49;;;;;;;86.78;26.80;;;-3.10;95.50;;;;;;5093854;28;20016;-93
2024/01/14 10:58:39;;;;;;;85.03;26.90;;;-3.20;95.80;;;;;;5061031;28;20025;-91
2024/01/14 11:01:09;;;;;;;83.85;30.73;;;-3.00;96.60;;;;;;5086653;28;20020;-93
2024/01/14 11:03:35;;;;;;;85.05;28.17;;;-3.00;94.90;;;;;;5101871;28;20012;-91
2024/01/14 11:06:02;;;;;;;92.90;28.55;;;-3.00;96.30;;;;;;5092438;28;20533;-92
2024/01/14 11:08:28;;;;;;;79.32;27.70;;;-3.00;96.10;;;;;;5080587;28;20024;-92
2024/01/14 11:10:55;;;;;;;88.80;29.55;;;-3.00;96.10;;;;;;5080944;28;20056;-92
2024/01/14 11:13:43;;;;;;;82.60;29.73;;;-3.10;96.50;;;;;;5074562;28;20070;-95
2024/01/14 11:16:23;;;;;;;72.13;29.88;;;-3.00;96.50;;;;;;5080969;28;20009;-96
2024/01/14 11:18:48;;;;;;;84.93;29.23;;;-3.10;97.40;;;;;;5167595;22;20048;-90
2024/01/14 11:21:33;;;;;;;99.32;35.58;;;-3.30;97.30;;;;;;5080632;28;20075;-92
2024/01/14 11:23:59;;;;;;;89.38;29.33;;;-3.40;98.10;;;;;;5074180;28;20029;-91
2024/01/14 11:26:25;;;;;;;89.22;26.80;;;-3.30;98.30;;;;;;5059985;28;20029;-92
2024/01/14 11:28:54;;;;;;;94.72;29.55;;;-3.20;97.50;;;;;;5071247;28;20063;-90
2024/01/14 11:31:20;;;;;;;;;;;-3.30;98.50;;;;;;5078621;28;20029;-93
2024/01/14 11:33:46;;;;;;;79.57;32.03;;;-3.10;98.40;;;;;;5070163;28;20385;-92
2024/01/14 11:36:33;;;;;;;88.30;30.35;;;-3.20;98.00;;;;;;5081555;28;20036;-92
2024/01/14 11:39:05;;;;;;;93.85;32.03;;;-3.30;98.40;;;;;;5059891;28;20074;-92
2024/01/14 11:41:32;;;;;;;87.97;25.50;;;-3.20;98.70;;;;;;5060290;28;20380;-90
2024/01/14 11:44:10;;;;;;;94.78;33.75;;;-3.30;98.60;;;;;;5067821;28;20021;-92
2024/01/14 11:46:41;;;;;;;78.80;27.52;;;-3.40;98.30;;;;;;5060596;28;20085;-91
2024/01/14 11:49:11;;;;;;;107.13;32.15;;;-3.30;99.10;;;;;;5046299;28;20024;-92
2024/01/14 11:51:50;;;;;;;90.28;31.75;;;-3.30;98.00;;;;;;5058290;28;20032;-92
2024/01/14 11:54:17;;;;;;;87.68;27.95;;;-3.20;98.40;;;;;;5051858;28;20061;-92
2024/01/14 11:56:43;;;;;;;86.13;27.65;;;-3.10;97.80;;;;;;5039362;28;20056;-93
2024/01/14 11:59:09;;;;;;;96.93;32.78;;;-3.20;97.20;;;;;;5057119;28;20049;-92
2024/01/14 12:01:39;;;;;;;78.20;29.23;;;-3.30;97.00;;;;;;5067710;28;20019;-93
2024/01/14 12:04:08;;;;;;;93.88;32.20;;;-3.30;98.00;;;;;;5063085;28;20021;-91
2024/01/14 12:06:43;;;;;;;85.35;28.10;;;-3.30;97.70;;;;;;5070664;28;20039;-91
2024/01/14 12:09:11;;;;;;;82.03;29.48;;;-3.30;98.40;;;;;;5069548;28;20032;-93
2024/01/14 12:11:37;;;;;;;86.32;31.30;;;-3.20;97.80;;;;;;5063909;28;20033;-91
2024/01/14 12:14:04;;;;;;;86.50;29.20;;;-3.20;97.80;;;;;;5057246;28;20025;-92
2024/01/14 12:16:31;;;;;;;80.80;29.65;;;-3.20;97.80;;;;;;5060516;28;20025;-92
2024/01/14 12:18:57;;;;;;;87.32;28.10;;;-3.20;96.90;;;;;;5067431;28;20029;-92
2024/01/14 12:21:25;;;;;;;77.70;29.02;;;-3.20;96.60;;;;;;5076194;28;20005;-91
2024/01/14 12:23:54;;;;;;;72.40;26.58;;;-3.20;97.10;;;;;;5113399;22;20115;-91
2024/01/14 12:26:20;;;;;;;63.38;24.42;;;-3.20;96.90;;;;;;5126168;22;20120;-93
2024/01/14 12:28:49;;;;;;;73.95;29.05;;;-3.10;97.40;;;;;;5079106;28;20088;-93
2024/01/14 12:31:25;;;;;;;105.65;32.90;;;-3.10;96.60;;;;;;5080419;28;20005;-95
2024/01/14 12:33:51;;;;;;;89.22;32.05;;;-3.00;97.10;;;;;;5080518;28;20020;-95
2024/01/14 12:36:18;;;;;;;109.43;35.30;;;-3.10;97.70;;;;;;5097676;28;20091;-94
2024/01/14 12:38:44;;;;;;;94.47;31.83;;;-3.00;98.10;;;;;;5080511;28;20013;-96
2024/01/14 12:41:12;;;;;;;88.05;33.45;;;-3.10;98.00;;;;;;5096678;28;20058;-96
2024/01/14 12:43:37;;;;;;;98.90;31.58;;;-3.30;97.90;;;;;;5096872;28;20085;-96
2024/01/14 12:46:03;;;;;;;86.72;30.52;;;-3.30;98.70;;;;;;5036574;28;20045;-92
2024/01/14 12:48:30;;;;;;;96.80;30.38;;;-3.20;98.40;;;;;;5080797;28;20587;-93